Iona, Minnesota
Current Conditions -  °F | °C
As of 8:34 AM on Friday 31 Oct 2014 (Local Time) from KDVP Reporting Station
Clear Clear  
Wind Chill: 14°   Ceiling: Unl
Heat Index: 21°   Visibility: 10mi
Dew Point: 19°   Wind: 6mph
Humidity: 91%   Direction: 320°NW
Pressure: 30.55"   Gusts: NA
Location:  43.92°N, 95.78°W
Report Text: KDVP 311334Z AUTO 32005KT 10SM CLR M06/M07 A3055 RMK AO2 T10601072
Loading
Personal Weather Stations






























Interactive Weather Map
Tropical Storm Tracking
New forecast layout! Learn more

10-Day Weather Forecast

Advertisements
Track Severe Weather on mobile